sensor_id;sensor_type;location;lat;lon;timestamp;P1;durP1;ratioP1;P2;durP2;ratioP2
10144;SDS011;5113;41.822;23.564;2023-02-15T00:02:41;30.03;;;12.80;;
10144;SDS011;5113;41.822;23.564;2023-02-15T00:05:48;26.67;;;10.37;;
10144;SDS011;5113;41.822;23.564;2023-02-15T00:08:54;21.77;;;9.63;;
10144;SDS011;5113;41.822;23.564;2023-02-15T00:12:01;23.47;;;8.37;;
10144;SDS011;5113;41.822;23.564;2023-02-15T00:15:07;13.93;;;8.13;;
10144;SDS011;5113;41.822;23.564;2023-02-15T00:18:15;17.17;;;10.30;;
10144;SDS011;5113;41.822;23.564;2023-02-15T00:21:22;31.50;;;14.37;;
10144;SDS011;5113;41.822;23.564;2023-02-15T00:24:28;21.10;;;13.53;;
10144;SDS011;5113;41.822;23.564;2023-02-15T00:27:35;22.23;;;12.37;;
10144;SDS011;5113;41.822;23.564;2023-02-15T00:30:42;13.00;;;9.13;;
10144;SDS011;5113;41.822;23.564;2023-02-15T00:33:50;21.30;;;11.97;;
10144;SDS011;5113;41.822;23.564;2023-02-15T00:36:56;29.37;;;13.00;;
10144;SDS011;5113;41.822;23.564;2023-02-15T00:40:03;20.37;;;10.17;;
10144;SDS011;5113;41.822;23.564;2023-02-15T00:43:11;22.80;;;11.20;;
10144;SDS011;5113;41.822;23.564;2023-02-15T00:46:17;15.20;;;10.23;;
10144;SDS011;5113;41.822;23.564;2023-02-15T00:49:24;19.17;;;12.13;;
10144;SDS011;5113;41.822;23.564;2023-02-15T00:52:31;22.37;;;13.80;;
10144;SDS011;5113;41.822;23.564;2023-02-15T00:55:37;25.83;;;12.57;;
10144;SDS011;5113;41.822;23.564;2023-02-15T00:58:44;17.43;;;10.87;;
10144;SDS011;5113;41.822;23.564;2023-02-15T01:01:51;15.87;;;9.17;;
10144;SDS011;5113;41.822;23.564;2023-02-15T01:04:59;16.37;;;8.13;;
10144;SDS011;5113;41.822;23.564;2023-02-15T01:08:06;14.87;;;8.90;;
10144;SDS011;5113;41.822;23.564;2023-02-15T01:11:13;23.63;;;11.43;;
10144;SDS011;5113;41.822;23.564;2023-02-15T01:14:26;19.27;;;9.40;;
10144;SDS011;5113;41.822;23.564;2023-02-15T01:17:32;19.40;;;10.27;;
10144;SDS011;5113;41.822;23.564;2023-02-15T01:20:40;14.67;;;8.60;;
10144;SDS011;5113;41.822;23.564;2023-02-15T01:23:46;18.47;;;9.63;;
10144;SDS011;5113;41.822;23.564;2023-02-15T01:26:53;17.47;;;10.10;;
10144;SDS011;5113;41.822;23.564;2023-02-15T01:29:59;19.67;;;8.13;;
10144;SDS011;5113;41.822;23.564;2023-02-15T01:33:05;13.87;;;9.27;;
10144;SDS011;5113;41.822;23.564;2023-02-15T01:36:13;22.23;;;11.00;;
10144;SDS011;5113;41.822;23.564;2023-02-15T01:39:21;22.67;;;9.00;;
10144;SDS011;5113;41.822;23.564;2023-02-15T01:42:29;18.93;;;7.70;;
10144;SDS011;5113;41.822;23.564;2023-02-15T01:45:36;14.43;;;7.43;;
10144;SDS011;5113;41.822;23.564;2023-02-15T01:48:43;11.13;;;7.17;;
10144;SDS011;5113;41.822;23.564;2023-02-15T01:51:53;17.40;;;6.97;;
10144;SDS011;5113;41.822;23.564;2023-02-15T01:54:59;17.67;;;9.13;;
10144;SDS011;5113;41.822;23.564;2023-02-15T01:58:07;17.10;;;8.83;;
10144;SDS011;5113;41.822;23.564;2023-02-15T02:01:13;13.83;;;8.43;;
10144;SDS011;5113;41.822;23.564;2023-02-15T02:04:22;20.30;;;7.70;;
10144;SDS011;5113;41.822;23.564;2023-02-15T02:07:37;18.17;;;7.87;;
10144;SDS011;5113;41.822;23.564;2023-02-15T02:10:46;10.90;;;6.40;;
10144;SDS011;5113;41.822;23.564;2023-02-15T02:13:52;18.10;;;10.63;;
10144;SDS011;5113;41.822;23.564;2023-02-15T02:17:02;14.67;;;9.40;;
10144;SDS011;5113;41.822;23.564;2023-02-15T02:24:11;16.47;;;9.17;;
10144;SDS011;5113;41.822;23.564;2023-02-15T02:27:37;21.37;;;9.73;;
10144;SDS011;5113;41.822;23.564;2023-02-15T02:30:54;20.77;;;11.07;;
10144;SDS011;5113;41.822;23.564;2023-02-15T02:34:28;31.33;;;12.77;;
10144;SDS011;5113;41.822;23.564;2023-02-15T02:37:44;13.23;;;8.17;;
10144;SDS011;5113;41.822;23.564;2023-02-15T02:40:58;17.30;;;8.13;;
10144;SDS011;5113;41.822;23.564;2023-02-15T02:44:15;15.77;;;9.77;;
10144;SDS011;5113;41.822;23.564;2023-02-15T02:47:26;11.10;;;7.17;;
10144;SDS011;5113;41.822;23.564;2023-02-15T02:50:38;12.77;;;8.43;;
10144;SDS011;5113;41.822;23.564;2023-02-15T02:53:45;22.73;;;10.97;;
10144;SDS011;5113;41.822;23.564;2023-02-15T02:56:51;11.63;;;6.97;;
10144;SDS011;5113;41.822;23.564;2023-02-15T03:00:00;18.77;;;8.10;;
10144;SDS011;5113;41.822;23.564;2023-02-15T03:03:10;11.67;;;7.70;;
10144;SDS011;5113;41.822;23.564;2023-02-15T03:06:22;10.63;;;7.03;;
10144;SDS011;5113;41.822;23.564;2023-02-15T03:09:34;9.70;;;6.83;;
10144;SDS011;5113;41.822;23.564;2023-02-15T03:12:49;11.10;;;7.10;;
10144;SDS011;5113;41.822;23.564;2023-02-15T03:15:56;15.20;;;6.90;;
10144;SDS011;5113;41.822;23.564;2023-02-15T03:19:23;10.90;;;8.60;;
10144;SDS011;5113;41.822;23.564;2023-02-15T03:22:35;8.80;;;6.90;;
10144;SDS011;5113;41.822;23.564;2023-02-15T03:25:45;11.80;;;9.13;;
10144;SDS011;5113;41.822;23.564;2023-02-15T03:28:57;12.33;;;8.70;;
10144;SDS011;5113;41.822;23.564;2023-02-15T03:32:07;18.87;;;10.43;;
10144;SDS011;5113;41.822;23.564;2023-02-15T03:35:16;14.70;;;8.87;;
10144;SDS011;5113;41.822;23.564;2023-02-15T03:38:29;17.33;;;9.97;;
10144;SDS011;5113;41.822;23.564;2023-02-15T03:41:44;18.60;;;8.03;;
10144;SDS011;5113;41.822;23.564;2023-02-15T03:44:56;17.77;;;10.37;;
10144;SDS011;5113;41.822;23.564;2023-02-15T03:48:05;10.90;;;6.57;;
10144;SDS011;5113;41.822;23.564;2023-02-15T03:51:14;10.83;;;8.00;;
10144;SDS011;5113;41.822;23.564;2023-02-15T03:54:44;20.33;;;9.27;;
10144;SDS011;5113;41.822;23.564;2023-02-15T03:57:51;13.47;;;9.00;;
10144;SDS011;5113;41.822;23.564;2023-02-15T04:01:18;15.80;;;8.93;;
10144;SDS011;5113;41.822;23.564;2023-02-15T04:04:49;30.40;;;12.77;;
10144;SDS011;5113;41.822;23.564;2023-02-15T04:07:55;19.07;;;9.57;;
10144;SDS011;5113;41.822;23.564;2023-02-15T04:11:03;22.77;;;11.53;;
10144;SDS011;5113;41.822;23.564;2023-02-15T04:14:08;19.87;;;11.40;;
10144;SDS011;5113;41.822;23.564;2023-02-15T04:17:28;18.00;;;11.47;;
10144;SDS011;5113;41.822;23.564;2023-02-15T04:20:35;19.97;;;10.20;;
10144;SDS011;5113;41.822;23.564;2023-02-15T04:23:59;17.90;;;9.00;;
10144;SDS011;5113;41.822;23.564;2023-02-15T04:27:24;14.37;;;7.17;;
10144;SDS011;5113;41.822;23.564;2023-02-15T04:30:31;11.43;;;7.20;;
10144;SDS011;5113;41.822;23.564;2023-02-15T04:33:37;19.53;;;11.00;;
10144;SDS011;5113;41.822;23.564;2023-02-15T04:36:43;10.40;;;6.87;;
10144;SDS011;5113;41.822;23.564;2023-02-15T04:39:49;8.27;;;6.70;;
10144;SDS011;5113;41.822;23.564;2023-02-15T04:42:57;25.97;;;14.97;;
10144;SDS011;5113;41.822;23.564;2023-02-15T04:46:04;21.93;;;9.80;;
10144;SDS011;5113;41.822;23.564;2023-02-15T04:49:10;21.47;;;13.63;;
10144;SDS011;5113;41.822;23.564;2023-02-15T04:52:17;30.93;;;15.47;;
10144;SDS011;5113;41.822;23.564;2023-02-15T04:55:23;21.07;;;12.73;;
10144;SDS011;5113;41.822;23.564;2023-02-15T04:58:32;20.67;;;8.57;;
10144;SDS011;5113;41.822;23.564;2023-02-15T05:01:39;20.17;;;10.40;;
10144;SDS011;5113;41.822;23.564;2023-02-15T05:04:46;15.40;;;9.00;;
10144;SDS011;5113;41.822;23.564;2023-02-15T05:07:52;15.53;;;10.13;;
10144;SDS011;5113;41.822;23.564;2023-02-15T05:10:59;28.27;;;14.73;;
10144;SDS011;5113;41.822;23.564;2023-02-15T05:14:07;28.23;;;15.17;;
10144;SDS011;5113;41.822;23.564;2023-02-15T05:17:13;33.87;;;15.87;;
10144;SDS011;5113;41.822;23.564;2023-02-15T05:20:19;73.70;;;21.03;;
10144;SDS011;5113;41.822;23.564;2023-02-15T05:23:26;60.33;;;26.83;;
10144;SDS011;5113;41.822;23.564;2023-02-15T05:26:32;44.60;;;20.13;;
10144;SDS011;5113;41.822;23.564;2023-02-15T05:29:58;29.63;;;16.10;;
10144;SDS011;5113;41.822;23.564;2023-02-15T05:33:05;62.03;;;25.50;;
10144;SDS011;5113;41.822;23.564;2023-02-15T05:36:11;46.40;;;23.33;;
10144;SDS011;5113;41.822;23.564;2023-02-15T05:39:18;30.97;;;13.80;;
10144;SDS011;5113;41.822;23.564;2023-02-15T05:42:24;38.67;;;15.37;;
10144;SDS011;5113;41.822;23.564;2023-02-15T05:45:32;41.97;;;20.43;;
10144;SDS011;5113;41.822;23.564;2023-02-15T05:48:39;49.00;;;18.57;;
10144;SDS011;5113;41.822;23.564;2023-02-15T05:51:45;35.83;;;16.53;;
10144;SDS011;5113;41.822;23.564;2023-02-15T05:54:51;62.93;;;27.00;;
10144;SDS011;5113;41.822;23.564;2023-02-15T05:57:58;39.73;;;20.73;;
10144;SDS011;5113;41.822;23.564;2023-02-15T06:01:11;41.57;;;20.27;;
10144;SDS011;5113;41.822;23.564;2023-02-15T06:04:19;38.20;;;18.93;;
10144;SDS011;5113;41.822;23.564;2023-02-15T06:07:25;41.87;;;21.33;;
10144;SDS011;5113;41.822;23.564;2023-02-15T06:10:32;51.30;;;23.47;;
10144;SDS011;5113;41.822;23.564;2023-02-15T06:13:38;46.67;;;24.20;;
10144;SDS011;5113;41.822;23.564;2023-02-15T06:16:45;74.10;;;36.90;;
10144;SDS011;5113;41.822;23.564;2023-02-15T06:19:52;84.93;;;40.33;;
10144;SDS011;5113;41.822;23.564;2023-02-15T06:22:58;105.83;;;48.70;;
10144;SDS011;5113;41.822;23.564;2023-02-15T06:26:04;119.07;;;43.93;;
10144;SDS011;5113;41.822;23.564;2023-02-15T06:29:10;93.37;;;39.80;;
10144;SDS011;5113;41.822;23.564;2023-02-15T06:32:18;80.97;;;38.20;;
10144;SDS011;5113;41.822;23.564;2023-02-15T06:35:24;85.50;;;34.27;;
10144;SDS011;5113;41.822;23.564;2023-02-15T06:38:31;74.30;;;32.87;;
10144;SDS011;5113;41.822;23.564;2023-02-15T06:41:37;80.47;;;34.57;;
10144;SDS011;5113;41.822;23.564;2023-02-15T06:44:44;61.67;;;28.63;;
10144;SDS011;5113;41.822;23.564;2023-02-15T06:47:52;38.90;;;19.37;;
10144;SDS011;5113;41.822;23.564;2023-02-15T06:50:58;39.97;;;17.43;;
10144;SDS011;5113;41.822;23.564;2023-02-15T06:54:05;36.57;;;16.70;;
10144;SDS011;5113;41.822;23.564;2023-02-15T06:57:12;41.07;;;18.43;;
10144;SDS011;5113;41.822;23.564;2023-02-15T07:00:18;49.40;;;23.43;;
10144;SDS011;5113;41.822;23.564;2023-02-15T07:03:28;71.13;;;30.83;;
10144;SDS011;5113;41.822;23.564;2023-02-15T07:06:34;96.70;;;38.80;;
10144;SDS011;5113;41.822;23.564;2023-02-15T07:09:41;69.03;;;28.33;;
10144;SDS011;5113;41.822;23.564;2023-02-15T07:12:47;51.57;;;25.17;;
10144;SDS011;5113;41.822;23.564;2023-02-15T07:15:53;63.67;;;26.13;;
10144;SDS011;5113;41.822;23.564;2023-02-15T07:19:00;59.50;;;22.30;;
10144;SDS011;5113;41.822;23.564;2023-02-15T07:22:07;75.53;;;26.97;;
10144;SDS011;5113;41.822;23.564;2023-02-15T07:25:13;31.63;;;22.30;;
10144;SDS011;5113;41.822;23.564;2023-02-15T07:28:20;55.73;;;28.00;;
10144;SDS011;5113;41.822;23.564;2023-02-15T07:31:26;64.27;;;28.90;;
10144;SDS011;5113;41.822;23.564;2023-02-15T07:34:34;63.93;;;33.07;;
10144;SDS011;5113;41.822;23.564;2023-02-15T07:37:40;36.03;;;22.07;;
10144;SDS011;5113;41.822;23.564;2023-02-15T07:40:46;25.23;;;13.07;;
10144;SDS011;5113;41.822;23.564;2023-02-15T07:43:53;36.10;;;17.63;;
10144;SDS011;5113;41.822;23.564;2023-02-15T07:46:59;43.63;;;21.23;;
10144;SDS011;5113;41.822;23.564;2023-02-15T07:50:07;43.20;;;20.63;;
10144;SDS011;5113;41.822;23.564;2023-02-15T07:53:14;55.90;;;24.13;;
10144;SDS011;5113;41.822;23.564;2023-02-15T07:56:20;36.90;;;24.67;;
10144;SDS011;5113;41.822;23.564;2023-02-15T07:59:27;55.90;;;28.33;;
10144;SDS011;5113;41.822;23.564;2023-02-15T08:02:33;43.33;;;20.40;;
10144;SDS011;5113;41.822;23.564;2023-02-15T08:05:43;30.70;;;16.53;;
10144;SDS011;5113;41.822;23.564;2023-02-15T08:08:50;31.53;;;20.00;;
10144;SDS011;5113;41.822;23.564;2023-02-15T08:11:57;49.33;;;20.23;;
10144;SDS011;5113;41.822;23.564;2023-02-15T08:15:03;34.53;;;17.63;;
10144;SDS011;5113;41.822;23.564;2023-02-15T08:18:11;30.63;;;14.37;;
10144;SDS011;5113;41.822;23.564;2023-02-15T08:21:18;28.77;;;13.17;;
10144;SDS011;5113;41.822;23.564;2023-02-15T08:24:29;23.27;;;13.40;;
10144;SDS011;5113;41.822;23.564;2023-02-15T08:27:36;26.70;;;14.03;;
10144;SDS011;5113;41.822;23.564;2023-02-15T08:30:43;21.27;;;12.00;;
10144;SDS011;5113;41.822;23.564;2023-02-15T08:33:50;14.93;;;8.93;;
10144;SDS011;5113;41.822;23.564;2023-02-15T08:36:59;7.83;;;6.80;;
10144;SDS011;5113;41.822;23.564;2023-02-15T08:40:06;17.77;;;9.60;;
10144;SDS011;5113;41.822;23.564;2023-02-15T08:43:13;5.47;;;4.47;;
10144;SDS011;5113;41.822;23.564;2023-02-15T08:46:19;11.37;;;8.80;;
10144;SDS011;5113;41.822;23.564;2023-02-15T08:49:28;9.30;;;8.20;;
10144;SDS011;5113;41.822;23.564;2023-02-15T08:52:35;14.57;;;8.47;;
10144;SDS011;5113;41.822;23.564;2023-02-15T08:55:41;14.07;;;7.67;;
10144;SDS011;5113;41.822;23.564;2023-02-15T08:58:48;18.43;;;10.50;;
10144;SDS011;5113;41.822;23.564;2023-02-15T09:01:55;23.83;;;10.50;;
10144;SDS011;5113;41.822;23.564;2023-02-15T09:05:01;13.67;;;8.23;;
10144;SDS011;5113;41.822;23.564;2023-02-15T09:08:09;21.33;;;10.97;;
10144;SDS011;5113;41.822;23.564;2023-02-15T09:11:16;12.60;;;8.03;;
10144;SDS011;5113;41.822;23.564;2023-02-15T09:14:28;14.43;;;8.87;;
10144;SDS011;5113;41.822;23.564;2023-02-15T09:17:34;16.53;;;10.77;;
10144;SDS011;5113;41.822;23.564;2023-02-15T09:20:40;16.23;;;9.77;;
10144;SDS011;5113;41.822;23.564;2023-02-15T09:23:48;12.43;;;8.77;;
10144;SDS011;5113;41.822;23.564;2023-02-15T09:26:55;20.60;;;8.07;;
10144;SDS011;5113;41.822;23.564;2023-02-15T09:30:02;14.77;;;10.93;;
10144;SDS011;5113;41.822;23.564;2023-02-15T09:33:08;17.07;;;8.07;;
10144;SDS011;5113;41.822;23.564;2023-02-15T09:36:15;24.30;;;11.33;;
10144;SDS011;5113;41.822;23.564;2023-02-15T09:39:25;17.93;;;8.80;;
10144;SDS011;5113;41.822;23.564;2023-02-15T09:42:40;15.67;;;8.63;;
10144;SDS011;5113;41.822;23.564;2023-02-15T09:46:09;14.07;;;9.07;;
10144;SDS011;5113;41.822;23.564;2023-02-15T09:49:25;19.87;;;11.50;;
10144;SDS011;5113;41.822;23.564;2023-02-15T09:52:49;15.03;;;10.30;;
10144;SDS011;5113;41.822;23.564;2023-02-15T09:56:14;20.83;;;12.30;;
10144;SDS011;5113;41.822;23.564;2023-02-15T09:59:30;15.23;;;9.83;;
10144;SDS011;5113;41.822;23.564;2023-02-15T10:02:51;15.30;;;9.50;;
10144;SDS011;5113;41.822;23.564;2023-02-15T10:06:23;22.97;;;10.83;;
10144;SDS011;5113;41.822;23.564;2023-02-15T10:09:40;10.20;;;7.07;;
10144;SDS011;5113;41.822;23.564;2023-02-15T10:13:03;12.40;;;7.47;;
10144;SDS011;5113;41.822;23.564;2023-02-15T10:16:19;13.70;;;7.60;;
10144;SDS011;5113;41.822;23.564;2023-02-15T10:19:36;7.37;;;5.73;;
10144;SDS011;5113;41.822;23.564;2023-02-15T10:22:53;11.47;;;6.27;;
10144;SDS011;5113;41.822;23.564;2023-02-15T10:26:16;9.03;;;6.67;;
10144;SDS011;5113;41.822;23.564;2023-02-15T10:29:27;9.83;;;6.77;;
10144;SDS011;5113;41.822;23.564;2023-02-15T10:32:38;14.50;;;7.80;;
10144;SDS011;5113;41.822;23.564;2023-02-15T10:35:57;9.83;;;6.30;;
10144;SDS011;5113;41.822;23.564;2023-02-15T10:39:12;7.57;;;4.93;;
10144;SDS011;5113;41.822;23.564;2023-02-15T10:42:27;11.27;;;6.30;;
10144;SDS011;5113;41.822;23.564;2023-02-15T10:45:43;5.40;;;3.93;;
10144;SDS011;5113;41.822;23.564;2023-02-15T10:49:06;85.13;;;26.07;;
10144;SDS011;5113;41.822;23.564;2023-02-15T10:52:27;19.43;;;9.83;;
10144;SDS011;5113;41.822;23.564;2023-02-15T10:55:42;13.83;;;8.63;;
10144;SDS011;5113;41.822;23.564;2023-02-15T10:59:06;18.33;;;9.13;;
10144;SDS011;5113;41.822;23.564;2023-02-15T11:02:29;24.10;;;9.40;;
10144;SDS011;5113;41.822;23.564;2023-02-15T11:05:46;11.40;;;6.40;;
10144;SDS011;5113;41.822;23.564;2023-02-15T11:09:03;15.63;;;8.67;;
10144;SDS011;5113;41.822;23.564;2023-02-15T11:12:16;14.77;;;9.83;;
10144;SDS011;5113;41.822;23.564;2023-02-15T11:15:29;10.73;;;7.17;;
10144;SDS011;5113;41.822;23.564;2023-02-15T11:18:41;17.03;;;8.47;;
10144;SDS011;5113;41.822;23.564;2023-02-15T11:21:53;14.47;;;7.33;;
10144;SDS011;5113;41.822;23.564;2023-02-15T11:25:05;14.77;;;9.97;;
10144;SDS011;5113;41.822;23.564;2023-02-15T11:28:24;14.43;;;7.27;;
10144;SDS011;5113;41.822;23.564;2023-02-15T11:31:37;11.43;;;7.27;;
10144;SDS011;5113;41.822;23.564;2023-02-15T11:34:51;13.50;;;6.90;;
10144;SDS011;5113;41.822;23.564;2023-02-15T11:38:04;13.23;;;8.87;;
10144;SDS011;5113;41.822;23.564;2023-02-15T11:41:17;13.83;;;7.10;;
10144;SDS011;5113;41.822;23.564;2023-02-15T11:44:30;8.80;;;5.60;;
10144;SDS011;5113;41.822;23.564;2023-02-15T11:47:40;9.23;;;6.13;;
10144;SDS011;5113;41.822;23.564;2023-02-15T11:50:48;6.60;;;4.70;;
10144;SDS011;5113;41.822;23.564;2023-02-15T11:53:54;11.83;;;6.33;;
10144;SDS011;5113;41.822;23.564;2023-02-15T11:57:03;16.63;;;7.37;;
10144;SDS011;5113;41.822;23.564;2023-02-15T12:00:23;17.53;;;8.07;;
10144;SDS011;5113;41.822;23.564;2023-02-15T12:03:43;11.67;;;6.70;;
10144;SDS011;5113;41.822;23.564;2023-02-15T12:06:54;11.07;;;5.57;;
10144;SDS011;5113;41.822;23.564;2023-02-15T12:10:13;7.03;;;4.73;;
10144;SDS011;5113;41.822;23.564;2023-02-15T12:13:25;22.97;;;11.13;;
10144;SDS011;5113;41.822;23.564;2023-02-15T12:16:32;15.10;;;8.93;;
10144;SDS011;5113;41.822;23.564;2023-02-15T12:19:46;24.10;;;13.10;;
10144;SDS011;5113;41.822;23.564;2023-02-15T12:23:00;18.53;;;11.60;;
10144;SDS011;5113;41.822;23.564;2023-02-15T12:26:09;17.77;;;11.90;;
10144;SDS011;5113;41.822;23.564;2023-02-15T12:29:16;16.07;;;9.27;;
10144;SDS011;5113;41.822;23.564;2023-02-15T12:32:27;11.13;;;7.07;;
10144;SDS011;5113;41.822;23.564;2023-02-15T12:35:36;10.63;;;6.57;;
10144;SDS011;5113;41.822;23.564;2023-02-15T12:38:44;20.57;;;12.77;;
10144;SDS011;5113;41.822;23.564;2023-02-15T12:42:15;32.33;;;16.53;;
10144;SDS011;5113;41.822;23.564;2023-02-15T12:45:25;17.27;;;11.07;;
10144;SDS011;5113;41.822;23.564;2023-02-15T12:48:33;11.63;;;6.70;;
10144;SDS011;5113;41.822;23.564;2023-02-15T12:51:46;7.37;;;5.83;;
10144;SDS011;5113;41.822;23.564;2023-02-15T12:54:55;13.50;;;7.77;;
10144;SDS011;5113;41.822;23.564;2023-02-15T12:58:15;17.47;;;9.93;;
10144;SDS011;5113;41.822;23.564;2023-02-15T13:01:23;12.80;;;7.47;;
10144;SDS011;5113;41.822;23.564;2023-02-15T13:04:31;8.83;;;5.73;;
10144;SDS011;5113;41.822;23.564;2023-02-15T13:07:37;12.33;;;7.13;;
10144;SDS011;5113;41.822;23.564;2023-02-15T13:10:53;13.83;;;8.53;;
10144;SDS011;5113;41.822;23.564;2023-02-15T13:14:01;14.47;;;8.70;;
10144;SDS011;5113;41.822;23.564;2023-02-15T13:17:09;20.43;;;8.17;;
10144;SDS011;5113;41.822;23.564;2023-02-15T13:20:18;9.73;;;6.50;;
10144;SDS011;5113;41.822;23.564;2023-02-15T13:23:28;14.00;;;8.20;;
10144;SDS011;5113;41.822;23.564;2023-02-15T13:26:38;16.57;;;9.20;;
10144;SDS011;5113;41.822;23.564;2023-02-15T13:29:49;7.90;;;6.53;;
10144;SDS011;5113;41.822;23.564;2023-02-15T13:32:59;13.33;;;7.93;;
10144;SDS011;5113;41.822;23.564;2023-02-15T13:36:09;18.77;;;9.90;;
10144;SDS011;5113;41.822;23.564;2023-02-15T13:39:24;18.17;;;10.93;;
10144;SDS011;5113;41.822;23.564;2023-02-15T13:42:36;16.50;;;9.23;;
10144;SDS011;5113;41.822;23.564;2023-02-15T13:45:50;20.07;;;10.33;;
10144;SDS011;5113;41.822;23.564;2023-02-15T13:49:11;14.20;;;9.70;;
10144;SDS011;5113;41.822;23.564;2023-02-15T13:52:24;17.47;;;8.77;;
10144;SDS011;5113;41.822;23.564;2023-02-15T13:55:37;13.17;;;8.47;;
10144;SDS011;5113;41.822;23.564;2023-02-15T13:59:05;15.00;;;9.40;;
10144;SDS011;5113;41.822;23.564;2023-02-15T14:02:36;19.77;;;11.90;;
10144;SDS011;5113;41.822;23.564;2023-02-15T14:06:05;12.83;;;7.53;;
10144;SDS011;5113;41.822;23.564;2023-02-15T14:09:29;26.43;;;16.50;;
10144;SDS011;5113;41.822;23.564;2023-02-15T14:12:50;23.73;;;13.73;;
10144;SDS011;5113;41.822;23.564;2023-02-15T14:16:10;16.90;;;10.07;;
10144;SDS011;5113;41.822;23.564;2023-02-15T14:19:24;25.57;;;13.37;;
10144;SDS011;5113;41.822;23.564;2023-02-15T14:22:38;14.30;;;8.67;;
10144;SDS011;5113;41.822;23.564;2023-02-15T14:25:48;17.20;;;10.33;;
10144;SDS011;5113;41.822;23.564;2023-02-15T14:29:03;26.00;;;12.90;;
10144;SDS011;5113;41.822;23.564;2023-02-15T14:32:23;35.93;;;17.53;;
10144;SDS011;5113;41.822;23.564;2023-02-15T14:35:35;44.30;;;19.60;;
10144;SDS011;5113;41.822;23.564;2023-02-15T14:38:46;21.97;;;10.37;;
10144;SDS011;5113;41.822;23.564;2023-02-15T14:42:03;32.87;;;13.13;;
10144;SDS011;5113;41.822;23.564;2023-02-15T14:45:15;29.20;;;13.20;;
10144;SDS011;5113;41.822;23.564;2023-02-15T14:48:28;23.03;;;12.97;;
10144;SDS011;5113;41.822;23.564;2023-02-15T14:51:56;25.80;;;10.80;;
10144;SDS011;5113;41.822;23.564;2023-02-15T14:55:05;17.13;;;9.33;;
10144;SDS011;5113;41.822;23.564;2023-02-15T14:58:12;14.20;;;9.97;;
10144;SDS011;5113;41.822;23.564;2023-02-15T15:01:24;26.57;;;13.97;;
10144;SDS011;5113;41.822;23.564;2023-02-15T15:04:34;21.33;;;12.53;;
10144;SDS011;5113;41.822;23.564;2023-02-15T15:07:44;22.13;;;12.13;;
10144;SDS011;5113;41.822;23.564;2023-02-15T15:10:52;22.63;;;12.97;;
10144;SDS011;5113;41.822;23.564;2023-02-15T15:14:00;26.60;;;11.20;;
10144;SDS011;5113;41.822;23.564;2023-02-15T15:17:08;31.77;;;15.43;;
10144;SDS011;5113;41.822;23.564;2023-02-15T15:20:36;24.70;;;12.27;;
10144;SDS011;5113;41.822;23.564;2023-02-15T15:23:46;24.83;;;14.63;;
10144;SDS011;5113;41.822;23.564;2023-02-15T15:27:05;20.20;;;13.47;;
10144;SDS011;5113;41.822;23.564;2023-02-15T15:30:49;26.00;;;14.57;;
10144;SDS011;5113;41.822;23.564;2023-02-15T15:37:46;29.23;;;15.77;;
10144;SDS011;5113;41.822;23.564;2023-02-15T15:41:16;26.07;;;14.13;;
10144;SDS011;5113;41.822;23.564;2023-02-15T15:44:31;31.53;;;14.47;;
10144;SDS011;5113;41.822;23.564;2023-02-15T15:48:15;19.50;;;13.47;;
10144;SDS011;5113;41.822;23.564;2023-02-15T15:51:35;38.83;;;16.53;;
10144;SDS011;5113;41.822;23.564;2023-02-15T15:54:50;38.37;;;20.30;;
10144;SDS011;5113;41.822;23.564;2023-02-15T15:58:00;41.30;;;21.20;;
10144;SDS011;5113;41.822;23.564;2023-02-15T16:01:10;41.90;;;22.87;;
10144;SDS011;5113;41.822;23.564;2023-02-15T16:04:22;43.77;;;23.73;;
10144;SDS011;5113;41.822;23.564;2023-02-15T16:07:30;35.80;;;18.83;;
10144;SDS011;5113;41.822;23.564;2023-02-15T16:10:38;34.47;;;17.13;;
10144;SDS011;5113;41.822;23.564;2023-02-15T16:13:46;33.73;;;16.33;;
10144;SDS011;5113;41.822;23.564;2023-02-15T16:16:54;28.70;;;18.87;;
10144;SDS011;5113;41.822;23.564;2023-02-15T16:20:03;41.27;;;21.53;;
10144;SDS011;5113;41.822;23.564;2023-02-15T16:23:21;48.03;;;26.93;;
10144;SDS011;5113;41.822;23.564;2023-02-15T16:26:58;50.90;;;27.07;;
10144;SDS011;5113;41.822;23.564;2023-02-15T16:30:18;50.20;;;27.43;;
10144;SDS011;5113;41.822;23.564;2023-02-15T16:33:33;36.37;;;21.60;;
10144;SDS011;5113;41.822;23.564;2023-02-15T16:36:41;52.63;;;27.67;;
10144;SDS011;5113;41.822;23.564;2023-02-15T16:39:48;45.10;;;25.10;;
10144;SDS011;5113;41.822;23.564;2023-02-15T16:42:57;41.73;;;20.60;;
10144;SDS011;5113;41.822;23.564;2023-02-15T16:46:10;39.77;;;21.00;;
10144;SDS011;5113;41.822;23.564;2023-02-15T16:49:18;38.43;;;20.07;;
10144;SDS011;5113;41.822;23.564;2023-02-15T16:52:26;54.23;;;26.13;;
10144;SDS011;5113;41.822;23.564;2023-02-15T16:55:35;86.33;;;35.43;;
10144;SDS011;5113;41.822;23.564;2023-02-15T16:58:48;60.60;;;31.20;;
10144;SDS011;5113;41.822;23.564;2023-02-15T17:01:56;63.07;;;29.60;;
10144;SDS011;5113;41.822;23.564;2023-02-15T17:08:29;65.60;;;31.50;;
10144;SDS011;5113;41.822;23.564;2023-02-15T17:11:37;58.73;;;30.20;;
10144;SDS011;5113;41.822;23.564;2023-02-15T17:14:48;91.53;;;43.03;;
10144;SDS011;5113;41.822;23.564;2023-02-15T17:18:02;87.63;;;38.50;;
10144;SDS011;5113;41.822;23.564;2023-02-15T17:21:11;68.20;;;35.67;;
10144;SDS011;5113;41.822;23.564;2023-02-15T17:24:21;80.67;;;32.00;;
10144;SDS011;5113;41.822;23.564;2023-02-15T17:27:37;80.60;;;34.23;;
10144;SDS011;5113;41.822;23.564;2023-02-15T17:30:45;65.27;;;34.23;;
10144;SDS011;5113;41.822;23.564;2023-02-15T17:33:53;63.53;;;33.93;;
10144;SDS011;5113;41.822;23.564;2023-02-15T17:37:00;76.03;;;34.53;;
10144;SDS011;5113;41.822;23.564;2023-02-15T17:40:10;67.30;;;31.53;;
10144;SDS011;5113;41.822;23.564;2023-02-15T17:43:24;58.93;;;25.90;;
10144;SDS011;5113;41.822;23.564;2023-02-15T17:46:34;53.00;;;24.27;;
10144;SDS011;5113;41.822;23.564;2023-02-15T17:49:42;42.23;;;21.73;;
10144;SDS011;5113;41.822;23.564;2023-02-15T17:52:49;56.83;;;27.57;;
10144;SDS011;5113;41.822;23.564;2023-02-15T17:55:57;77.03;;;32.83;;
10144;SDS011;5113;41.822;23.564;2023-02-15T17:59:03;87.60;;;38.97;;
10144;SDS011;5113;41.822;23.564;2023-02-15T18:02:12;81.23;;;35.07;;
10144;SDS011;5113;41.822;23.564;2023-02-15T18:05:36;86.80;;;38.60;;
10144;SDS011;5113;41.822;23.564;2023-02-15T18:09:00;75.43;;;33.90;;
10144;SDS011;5113;41.822;23.564;2023-02-15T18:12:25;82.77;;;38.17;;
10144;SDS011;5113;41.822;23.564;2023-02-15T18:15:33;69.60;;;33.03;;
10144;SDS011;5113;41.822;23.564;2023-02-15T18:18:42;70.63;;;32.37;;
10144;SDS011;5113;41.822;23.564;2023-02-15T18:21:50;80.10;;;31.50;;
10144;SDS011;5113;41.822;23.564;2023-02-15T18:24:59;93.40;;;39.23;;
10144;SDS011;5113;41.822;23.564;2023-02-15T18:28:05;113.00;;;49.03;;
10144;SDS011;5113;41.822;23.564;2023-02-15T18:31:13;98.87;;;45.33;;
10144;SDS011;5113;41.822;23.564;2023-02-15T18:34:22;73.50;;;31.73;;
10144;SDS011;5113;41.822;23.564;2023-02-15T18:37:32;85.13;;;34.70;;
10144;SDS011;5113;41.822;23.564;2023-02-15T18:40:38;103.10;;;43.57;;
10144;SDS011;5113;41.822;23.564;2023-02-15T18:43:45;145.83;;;57.47;;
10144;SDS011;5113;41.822;23.564;2023-02-15T18:46:54;95.77;;;41.00;;
10144;SDS011;5113;41.822;23.564;2023-02-15T18:50:02;78.70;;;36.83;;
10144;SDS011;5113;41.822;23.564;2023-02-15T18:53:10;91.40;;;35.37;;
10144;SDS011;5113;41.822;23.564;2023-02-15T18:56:21;76.97;;;32.73;;
10144;SDS011;5113;41.822;23.564;2023-02-15T18:59:27;114.30;;;46.40;;